createdAt,value
2018-10-11T00:01:05.610Z,61.82
2018-10-11T00:03:33.388Z,61.31
2018-10-11T00:06:01.173Z,61.06
2018-10-11T00:08:28.982Z,61.05
2018-10-11T00:10:56.828Z,61.28
2018-10-11T00:13:24.642Z,61.12
2018-10-11T00:15:52.431Z,61.02
2018-10-11T00:18:20.240Z,61.56
2018-10-11T00:20:48.033Z,61.72
2018-10-11T00:23:15.815Z,61.83
2018-10-11T00:25:43.593Z,61.03
2018-10-11T00:28:11.386Z,61.39
2018-10-11T00:30:39.211Z,61.67
2018-10-11T00:33:06.981Z,61.37
2018-10-11T00:35:34.749Z,61.34
2018-10-11T00:38:02.542Z,61.74
2018-10-11T00:40:30.328Z,61.21
2018-10-11T00:42:58.125Z,60.99
2018-10-11T00:45:26.161Z,61.59
2018-10-11T00:47:53.912Z,61.33
2018-10-11T00:50:21.696Z,60.87
2018-10-11T00:52:49.501Z,61.71
2018-10-11T00:55:17.340Z,61.75
2018-10-11T00:57:45.095Z,61.10
2018-10-11T01:00:12.863Z,61.53
2018-10-11T01:02:40.652Z,61.06
2018-10-11T01:05:08.458Z,61.48
2018-10-11T01:07:36.228Z,61.19
2018-10-11T01:10:04.028Z,60.91
2018-10-11T01:12:31.821Z,60.92
2018-10-11T01:14:59.594Z,61.42
2018-10-11T01:17:27.375Z,61.68
2018-10-11T01:19:55.189Z,61.53
2018-10-11T01:22:22.973Z,61.15
2018-10-11T01:24:50.775Z,60.93
2018-10-11T01:27:18.556Z,60.90
2018-10-11T01:29:46.396Z,61.23
2018-10-11T01:32:14.170Z,61.45
2018-10-11T01:34:41.920Z,61.73
2018-10-11T01:37:09.741Z,61.51
2018-10-11T01:39:37.537Z,60.89
2018-10-11T01:42:05.330Z,61.66
2018-10-11T01:44:33.120Z,61.69
2018-10-11T01:47:00.933Z,61.46
2018-10-11T01:49:28.713Z,61.04
2018-10-11T01:51:56.474Z,61.15
2018-10-11T01:54:24.317Z,61.16
2018-10-11T01:56:53.098Z,61.64
2018-10-11T01:59:20.842Z,61.70
2018-10-11T02:01:48.644Z,60.89
2018-10-11T02:04:16.451Z,61.72
2018-10-11T02:06:44.397Z,61.29
2018-10-11T02:09:12.204Z,61.23
2018-10-11T02:11:40.003Z,61.37
2018-10-11T02:14:07.817Z,61.46
2018-10-11T02:16:35.636Z,60.98
2018-10-11T02:19:03.441Z,61.44
2018-10-11T02:21:31.206Z,60.88
2018-10-11T02:23:58.978Z,60.91
2018-10-11T02:26:26.744Z,60.95
2018-10-11T02:28:54.540Z,61.64
2018-10-11T02:31:22.312Z,61.08
2018-10-11T02:33:50.123Z,61.64
2018-10-11T02:36:17.941Z,61.46
2018-10-11T02:38:45.716Z,61.40
2018-10-11T02:41:13.566Z,61.65
2018-10-11T02:43:41.357Z,61.25
2018-10-11T02:46:09.156Z,60.88
2018-10-11T02:48:36.926Z,60.99
2018-10-11T02:51:04.774Z,61.12
2018-10-11T02:53:32.568Z,61.40
2018-10-11T02:56:00.333Z,61.13
2018-10-11T02:58:33.649Z,61.33
2018-10-11T03:01:01.441Z,61.44
2018-10-11T03:03:29.614Z,61.13
2018-10-11T03:05:58.865Z,61.70
2018-10-11T03:08:27.153Z,61.79
2018-10-11T03:10:55.023Z,61.33
2018-10-11T03:13:22.774Z,61.19
2018-10-11T03:15:50.573Z,61.32
2018-10-11T03:18:18.368Z,61.61
2018-10-11T03:20:46.338Z,61.66
2018-10-11T03:23:14.888Z,60.93
2018-10-11T03:25:44.137Z,61.26
2018-10-11T03:28:13.357Z,61.76
2018-10-11T03:30:41.472Z,60.95
2018-10-11T03:33:09.244Z,61.48
2018-10-11T03:35:37.038Z,60.89
2018-10-11T03:38:04.895Z,61.69
2018-10-11T03:40:32.646Z,61.56
2018-10-11T03:43:00.440Z,61.62
2018-10-11T03:45:28.212Z,61.29
2018-10-11T03:47:56.178Z,61.74
2018-10-11T03:50:24.180Z,61.27
2018-10-11T03:52:51.945Z,61.43
2018-10-11T03:55:19.719Z,61.72
2018-10-11T03:57:47.471Z,61.11
2018-10-11T04:00:15.182Z,61.64
2018-10-11T04:02:42.953Z,61.08
2018-10-11T04:05:10.925Z,61.21
2018-10-11T04:07:38.702Z,61.80
2018-10-11T04:10:06.502Z,61.06
2018-10-11T04:12:34.256Z,61.89
2018-10-11T04:15:01.925Z,61.12
2018-10-11T04:17:29.633Z,61.61
2018-10-11T04:19:57.782Z,61.92
2018-10-11T04:22:25.447Z,61.34
2018-10-11T04:24:53.115Z,61.08
2018-10-11T04:27:20.763Z,61.14
2018-10-11T04:29:48.437Z,61.83
2018-10-11T04:32:16.139Z,61.11
2018-10-11T04:34:43.905Z,61.77
2018-10-11T04:37:11.788Z,61.89
2018-10-11T04:39:39.450Z,61.87
2018-10-11T04:42:07.477Z,61.35
2018-10-11T04:44:36.130Z,61.37
2018-10-11T04:47:04.387Z,61.37
2018-10-11T04:49:32.106Z,61.88
2018-10-11T04:51:59.789Z,61.62
2018-10-11T04:54:27.557Z,61.64
2018-10-11T04:56:55.276Z,62.03
2018-10-11T04:59:22.978Z,61.64
2018-10-11T05:01:50.700Z,61.62
2018-10-11T05:04:18.451Z,61.74
2018-10-11T05:06:46.148Z,61.83
2018-10-11T05:09:13.814Z,61.08
2018-10-11T05:11:42.252Z,61.01
2018-10-11T05:14:10.985Z,60.86
2018-10-11T05:16:38.625Z,60.84
2018-10-11T05:19:06.385Z,60.22
2018-10-11T05:21:34.216Z,60.17
2018-10-11T05:24:01.852Z,61.05
2018-10-11T05:26:29.531Z,59.96
2018-10-11T05:28:57.237Z,60.18
2018-10-11T05:31:24.979Z,59.77
2018-10-11T05:33:53.568Z,58.67
2018-10-11T05:36:21.262Z,59.75
2018-10-11T05:38:48.997Z,59.82
2018-10-11T05:41:16.765Z,59.83
2018-10-11T05:43:44.585Z,60.74
2018-10-11T05:46:17.824Z,60.41
2018-10-11T05:48:45.502Z,59.89
2018-10-11T05:51:13.177Z,59.46
2018-10-11T05:53:40.881Z,60.02
2018-10-11T05:56:08.564Z,59.88
2018-10-11T05:58:36.282Z,59.01
2018-10-11T06:01:04.007Z,59.08
2018-10-11T06:03:31.715Z,59.48
2018-10-11T06:05:59.454Z,58.99
2018-10-11T06:08:27.105Z,59.55
2018-10-11T06:10:54.778Z,58.83
2018-10-11T06:13:22.610Z,58.73
2018-10-11T06:15:50.858Z,58.92
2018-10-11T06:18:18.614Z,58.76
2018-10-11T06:20:46.332Z,59.12
2018-10-11T06:23:14.025Z,58.79
2018-10-11T06:25:41.679Z,59.61
2018-10-11T06:28:09.446Z,59.34
2018-10-11T06:30:37.545Z,59.22
2018-10-11T06:33:05.246Z,59.24
2018-10-11T06:35:32.998Z,58.50
2018-10-11T06:38:00.744Z,58.37
2018-10-11T06:40:28.386Z,58.27
2018-10-11T06:42:56.006Z,57.99
2018-10-11T06:45:23.632Z,58.33
2018-10-11T06:47:52.841Z,58.79
2018-10-11T06:50:20.739Z,58.20
2018-10-11T06:52:48.387Z,58.14
2018-10-11T06:55:16.030Z,58.24
2018-10-11T06:57:43.659Z,57.84
2018-10-11T07:00:11.361Z,58.31
2018-10-11T07:02:38.990Z,57.70
2018-10-11T07:05:06.645Z,57.75
2018-10-11T07:07:34.281Z,58.38
2018-10-11T07:10:01.921Z,58.28
2018-10-11T07:12:29.554Z,58.06
2018-10-11T07:14:57.194Z,57.08
2018-10-11T07:17:24.866Z,57.45
2018-10-11T07:19:52.497Z,57.07
2018-10-11T07:22:20.125Z,57.84
2018-10-11T07:24:47.785Z,57.48
2018-10-11T07:27:15.405Z,56.95
2018-10-11T07:29:43.041Z,57.71
2018-10-11T07:32:10.706Z,57.68
2018-10-11T07:34:38.374Z,57.69
2018-10-11T07:37:06.025Z,56.93
2018-10-11T07:39:33.644Z,56.76
2018-10-11T07:42:01.274Z,56.87
2018-10-11T07:44:28.897Z,56.49
2018-10-11T07:46:56.612Z,56.99
2018-10-11T07:49:24.218Z,57.10
2018-10-11T07:51:52.166Z,57.20
2018-10-11T07:54:19.809Z,56.73
2018-10-11T07:56:47.441Z,56.97
2018-10-11T07:59:15.159Z,57.59
2018-10-11T08:01:42.794Z,57.29
2018-10-11T08:04:10.429Z,57.47
2018-10-11T08:06:38.130Z,57.76
2018-10-11T08:09:06.909Z,57.32
2018-10-11T08:11:34.680Z,56.87
2018-10-11T08:14:02.214Z,56.98
2018-10-11T08:16:29.985Z,56.87
2018-10-11T08:18:57.725Z,57.28
2018-10-11T08:21:25.246Z,56.48
2018-10-11T08:23:52.922Z,56.42
2018-10-11T08:26:20.896Z,57.28
2018-10-11T08:28:48.194Z,56.52
2018-10-11T08:31:15.854Z,57.33
2018-10-11T08:33:43.509Z,57.14
2018-10-11T08:36:11.154Z,56.54
2018-10-11T08:38:38.860Z,56.73
2018-10-11T08:41:06.747Z,56.53
2018-10-11T08:43:34.452Z,56.70
2018-10-11T08:46:02.102Z,56.94
2018-10-11T08:48:29.821Z,56.75
2018-10-11T08:50:57.530Z,56.93
2018-10-11T08:53:25.175Z,57.16
2018-10-11T08:55:52.839Z,57.39
2018-10-11T08:58:20.486Z,56.76
2018-10-11T09:00:49.135Z,57.23
2018-10-11T09:03:16.889Z,57.11
2018-10-11T09:05:44.709Z,56.84
2018-10-11T09:08:12.341Z,56.97
2018-10-11T09:10:39.972Z,56.56
2018-10-11T09:13:07.632Z,56.48
2018-10-11T09:15:35.258Z,56.82
2018-10-11T09:18:02.897Z,56.61
2018-10-11T09:20:30.516Z,56.85
2018-10-11T09:22:58.187Z,56.60
2018-10-11T09:25:25.818Z,55.99
2018-10-11T09:27:53.477Z,56.95
2018-10-11T09:30:21.209Z,56.72
2018-10-11T09:32:48.769Z,56.23
2018-10-11T09:35:16.411Z,56.99
2018-10-11T09:37:44.089Z,56.73
2018-10-11T09:40:11.726Z,57.05
2018-10-11T09:42:39.367Z,56.33
2018-10-11T09:45:07.420Z,56.94
2018-10-11T09:47:35.095Z,57.14
2018-10-11T09:50:02.774Z,56.33
2018-10-11T09:52:30.417Z,56.38
2018-10-11T09:54:58.142Z,57.10
2018-10-11T09:57:29.811Z,57.09
2018-10-11T09:59:58.004Z,57.20
2018-10-11T10:02:26.473Z,57.02
2018-10-11T10:04:55.643Z,56.97
2018-10-11T10:07:23.382Z,57.29
2018-10-11T10:09:51.284Z,57.27
2018-10-11T10:12:19.121Z,57.04
2018-10-11T10:14:47.555Z,57.28
2018-10-11T10:17:15.299Z,57.13
2018-10-11T10:19:43.703Z,56.82
2018-10-11T10:22:11.505Z,56.61
2018-10-11T10:24:39.789Z,56.88
2018-10-11T10:27:07.103Z,56.59
2018-10-11T10:29:35.226Z,57.35
2018-10-11T10:32:04.428Z,57.53
2018-10-11T10:34:32.257Z,57.51
2018-10-11T10:37:00.052Z,57.27
2018-10-11T10:39:27.814Z,57.36
2018-10-11T10:41:55.566Z,56.76
2018-10-11T10:44:23.308Z,56.90
2018-10-11T10:46:51.137Z,57.15
2018-10-11T10:49:19.020Z,57.45
2018-10-11T10:51:46.833Z,56.79
2018-10-11T10:54:20.027Z,56.98
2018-10-11T10:56:47.614Z,57.44
2018-10-11T10:59:15.429Z,57.39
2018-10-11T11:01:43.252Z,57.62
2018-10-11T11:04:11.098Z,57.26
2018-10-11T11:06:38.773Z,57.84
2018-10-11T11:09:08.309Z,57.32
2018-10-11T11:11:36.027Z,57.75
2018-10-11T11:14:03.744Z,57.23
2018-10-11T11:16:31.482Z,57.49
2018-10-11T11:18:59.241Z,57.62
2018-10-11T11:21:26.888Z,57.31
2018-10-11T11:23:54.634Z,57.04
2018-10-11T11:26:22.354Z,57.57
2018-10-11T11:28:50.118Z,57.07
2018-10-11T11:31:17.798Z,57.15
2018-10-11T11:33:45.536Z,57.12
2018-10-11T11:36:13.250Z,57.39
2018-10-11T11:38:40.969Z,57.81
2018-10-11T11:41:08.712Z,58.02
2018-10-11T11:43:36.401Z,57.46
2018-10-11T11:46:04.135Z,57.56
2018-10-11T11:48:31.971Z,57.04
2018-10-11T11:50:59.665Z,57.79
2018-10-11T11:53:27.340Z,57.08
2018-10-11T11:55:55.028Z,56.78
2018-10-11T11:58:22.744Z,57.56
2018-10-11T12:00:50.473Z,57.63
2018-10-11T12:03:18.149Z,56.83
2018-10-11T12:05:45.829Z,57.54
2018-10-11T12:08:13.597Z,57.33
2018-10-11T12:10:41.323Z,57.24
2018-10-11T12:13:10.161Z,56.72
2018-10-11T12:15:38.844Z,56.63
2018-10-11T12:18:08.254Z,56.80
2018-10-11T12:20:37.283Z,57.07
2018-10-11T12:23:05.967Z,56.51
2018-10-11T12:25:33.949Z,56.91
2018-10-11T12:28:01.716Z,56.72
2018-10-11T12:30:29.553Z,57.32
2018-10-11T12:32:57.289Z,57.24
2018-10-11T12:35:25.482Z,56.47
2018-10-11T12:37:53.203Z,56.81
2018-10-11T12:40:21.017Z,57.22
2018-10-11T12:42:48.995Z,56.34
2018-10-11T12:45:17.147Z,56.95
2018-10-11T12:47:44.990Z,56.48
2018-10-11T12:50:13.365Z,56.46
2018-10-11T12:52:41.348Z,56.47
2018-10-11T12:55:09.090Z,57.05
2018-10-11T12:57:37.153Z,56.80
2018-10-11T13:00:05.430Z,57.17
2018-10-11T13:02:33.220Z,57.10
2018-10-11T13:05:00.914Z,57.35
2018-10-11T13:07:28.568Z,56.71
2018-10-11T13:09:56.227Z,57.28
2018-10-11T13:12:23.924Z,57.40
2018-10-11T13:14:51.762Z,57.35
2018-10-11T13:17:19.432Z,56.67
2018-10-11T13:19:47.093Z,56.57
2018-10-11T13:22:14.729Z,56.56
2018-10-11T13:24:46.836Z,57.32
2018-10-11T13:27:10.038Z,57.08
2018-10-11T13:29:37.644Z,57.07
2018-10-11T13:32:05.279Z,57.12
2018-10-11T13:34:32.924Z,57.04
2018-10-11T13:37:00.582Z,57.25
2018-10-11T13:39:28.214Z,56.77
2018-10-11T13:41:55.838Z,56.51
2018-10-11T13:44:23.476Z,56.55
2018-10-11T13:46:51.311Z,56.50
2018-10-11T13:49:18.937Z,56.55
2018-10-11T13:51:46.584Z,56.56
2018-10-11T13:54:18.350Z,56.60
2018-10-11T13:56:52.268Z,57.41
2018-10-11T13:59:15.184Z,56.33
2018-10-11T14:01:41.819Z,56.30
2018-10-11T14:04:09.478Z,56.71
2018-10-11T14:06:37.105Z,56.45
2018-10-11T14:09:07.214Z,56.24
2018-10-11T14:11:34.900Z,56.42
2018-10-11T14:14:02.556Z,56.94
2018-10-11T14:16:30.205Z,56.32
2018-10-11T14:18:57.833Z,56.13
2018-10-11T14:21:25.471Z,56.18
2018-10-11T14:23:53.219Z,56.79
2018-10-11T14:26:20.786Z,56.82
2018-10-11T14:28:48.428Z,56.13
2018-10-11T14:31:16.051Z,56.30
2018-10-11T14:33:43.785Z,56.90
2018-10-11T14:36:11.469Z,56.99
2018-10-11T14:38:39.068Z,57.05
2018-10-11T14:41:06.738Z,56.92
2018-10-11T14:43:34.372Z,56.21
2018-10-11T14:46:02.051Z,56.22
2018-10-11T14:48:29.689Z,56.87
2018-10-11T14:50:57.396Z,56.96
2018-10-11T14:53:24.992Z,56.41
2018-10-11T14:55:52.638Z,56.46
2018-10-11T14:58:20.278Z,56.22
2018-10-11T15:00:47.926Z,56.89
2018-10-11T15:03:15.608Z,57.03
2018-10-11T15:05:43.251Z,56.10
2018-10-11T15:08:10.872Z,56.23
2018-10-11T15:10:38.541Z,56.75
2018-10-11T15:13:06.444Z,56.94
2018-10-11T15:15:34.077Z,56.18
2018-10-11T15:18:01.710Z,56.08
2018-10-11T15:20:29.351Z,56.91
2018-10-11T15:22:56.977Z,56.84
2018-10-11T15:25:24.631Z,56.74
2018-10-11T15:27:52.273Z,56.87
2018-10-11T15:30:19.901Z,56.20
2018-10-11T15:32:47.521Z,56.17
2018-10-11T15:35:15.164Z,57.07
2018-10-11T15:37:42.803Z,56.11
2018-10-11T15:40:10.508Z,56.88
2018-10-11T15:42:38.267Z,56.97
2018-10-11T15:45:06.611Z,57.13
2018-10-11T15:47:34.268Z,56.72
2018-10-11T15:50:01.888Z,56.52
2018-10-11T15:52:29.616Z,57.09
2018-10-11T15:54:57.197Z,56.35
2018-10-11T15:57:24.809Z,56.62
2018-10-11T15:59:52.662Z,57.15
2018-10-11T16:02:20.288Z,56.41
2018-10-11T16:04:48.030Z,56.41
2018-10-11T16:07:15.633Z,56.84
2018-10-11T16:09:43.296Z,57.13
2018-10-11T16:12:10.940Z,56.40
2018-10-11T16:14:38.600Z,57.17
2018-10-11T16:17:06.239Z,56.55
2018-10-11T16:19:33.882Z,56.59
2018-10-11T16:22:01.514Z,56.36
2018-10-11T16:24:29.155Z,56.82
2018-10-11T16:26:56.791Z,57.09
2018-10-11T16:29:24.554Z,57.08
2018-10-11T16:31:52.182Z,56.34
2018-10-11T16:34:19.810Z,56.43
2018-10-11T16:36:47.468Z,56.99
2018-10-11T16:39:15.189Z,56.77
2018-10-11T16:41:42.793Z,56.50
2018-10-11T16:44:10.439Z,56.39
2018-10-11T16:46:38.099Z,57.34
2018-10-11T16:49:05.773Z,57.28
2018-10-11T16:51:33.410Z,56.58
2018-10-11T16:54:01.238Z,56.98
2018-10-11T16:56:28.877Z,56.85
2018-10-11T16:58:56.567Z,56.93
2018-10-11T17:01:24.206Z,57.35
2018-10-11T17:03:51.854Z,57.38
2018-10-11T17:06:19.558Z,57.07
2018-10-11T17:08:47.232Z,57.42
2018-10-11T17:11:14.853Z,56.65
2018-10-11T17:13:42.533Z,57.43
2018-10-11T17:16:10.166Z,56.70
2018-10-11T17:18:37.807Z,57.39
2018-10-11T17:21:05.447Z,57.41
2018-10-11T17:23:33.086Z,56.98
2018-10-11T17:26:00.711Z,57.33
2018-10-11T17:28:28.342Z,56.87
2018-10-11T17:30:56.008Z,57.37
2018-10-11T17:33:23.668Z,57.00
2018-10-11T17:35:51.294Z,57.43
2018-10-11T17:38:18.942Z,56.71
2018-10-11T17:40:46.569Z,56.67
2018-10-11T17:43:14.218Z,57.61
2018-10-11T17:45:41.983Z,57.68
2018-10-11T17:48:09.637Z,57.63
2018-10-11T17:50:37.284Z,57.73
2018-10-11T17:53:04.927Z,57.40
2018-10-11T17:55:32.555Z,57.35
2018-10-11T17:58:00.219Z,57.38
2018-10-11T18:00:27.868Z,56.68
2018-10-11T18:02:55.535Z,57.48
2018-10-11T18:05:23.179Z,57.36
2018-10-11T18:07:50.926Z,57.00
2018-10-11T18:10:18.577Z,57.00
2018-10-11T18:12:46.218Z,57.36
2018-10-11T18:15:13.925Z,57.24
2018-10-11T18:17:41.562Z,57.14
2018-10-11T18:20:09.211Z,57.29
2018-10-11T18:22:36.859Z,57.01
2018-10-11T18:25:04.489Z,57.40
2018-10-11T18:27:32.166Z,57.17
2018-10-11T18:29:59.813Z,57.35
2018-10-11T18:32:27.467Z,57.30
2018-10-11T18:34:55.109Z,57.46
2018-10-11T18:37:22.744Z,57.38
2018-10-11T18:39:50.378Z,56.83
2018-10-11T18:42:18.060Z,57.13
2018-10-11T18:44:45.830Z,57.40
2018-10-11T18:47:13.380Z,57.13
2018-10-11T18:49:41.024Z,56.99
2018-10-11T18:52:08.748Z,57.32
2018-10-11T18:54:36.389Z,56.59
2018-10-11T18:57:04.021Z,57.35
2018-10-11T18:59:31.658Z,57.34
2018-10-11T19:01:59.328Z,57.34
2018-10-11T19:04:26.973Z,57.12
2018-10-11T19:06:54.593Z,57.25
2018-10-11T19:09:22.226Z,57.57
2018-10-11T19:11:49.878Z,56.71
2018-10-11T19:14:17.522Z,57.28
2018-10-11T19:16:45.156Z,57.17
2018-10-11T19:19:12.986Z,57.38
2018-10-11T19:21:40.803Z,56.85
2018-10-11T19:24:08.530Z,56.65
2018-10-11T19:26:36.552Z,57.31
2018-10-11T19:29:04.295Z,57.29
2018-10-11T19:31:32.039Z,57.26
2018-10-11T19:33:59.752Z,56.70
2018-10-11T19:36:27.465Z,57.15
2018-10-11T19:38:55.232Z,56.61
2018-10-11T19:41:24.918Z,57.21
2018-10-11T19:43:52.731Z,57.21
2018-10-11T19:46:20.486Z,56.53
2018-10-11T19:48:48.233Z,57.18
2018-10-11T19:51:16.050Z,57.45
2018-10-11T19:53:43.999Z,57.35
2018-10-11T19:56:11.831Z,57.44
2018-10-11T19:58:39.596Z,56.73
2018-10-11T20:01:07.331Z,57.50
2018-10-11T20:03:35.139Z,57.51
2018-10-11T20:06:02.900Z,57.15
2018-10-11T20:08:30.728Z,56.75
2018-10-11T20:10:58.366Z,56.98
2018-10-11T20:13:26.056Z,56.93
2018-10-11T20:15:53.791Z,56.71
2018-10-11T20:18:21.565Z,57.20
2018-10-11T20:20:49.277Z,56.89
2018-10-11T20:23:16.953Z,57.28
2018-10-11T20:25:44.602Z,57.36
2018-10-11T20:28:12.540Z,57.32
2018-10-11T20:30:40.313Z,57.31
2018-10-11T20:33:07.964Z,57.50
2018-10-11T20:35:35.855Z,57.12
2018-10-11T20:38:03.721Z,57.66
2018-10-11T20:40:31.501Z,57.64
2018-10-11T20:42:59.201Z,56.81
2018-10-11T20:45:27.835Z,56.86
2018-10-11T20:47:55.496Z,57.38
2018-10-11T20:50:23.170Z,57.57
2018-10-11T20:52:50.834Z,57.70
2018-10-11T20:55:18.749Z,57.37
2018-10-11T20:57:46.629Z,57.06
2018-10-11T21:00:14.330Z,57.22
2018-10-11T21:02:42.044Z,57.07
2018-10-11T21:05:09.693Z,57.50
2018-10-11T21:07:37.428Z,56.86
2018-10-11T21:10:05.449Z,57.30
2018-10-11T21:12:33.146Z,57.49
2018-10-11T21:15:00.874Z,57.55
2018-10-11T21:17:28.574Z,57.08
2018-10-11T21:19:56.355Z,57.42
2018-10-11T21:22:23.948Z,56.83
2018-10-11T21:24:51.600Z,57.38
2018-10-11T21:27:19.371Z,56.64
2018-10-11T21:29:47.397Z,56.65
2018-10-11T21:32:15.057Z,56.85
2018-10-11T21:34:42.715Z,56.92
2018-10-11T21:37:10.515Z,57.11
2018-10-11T21:39:38.429Z,56.91
2018-10-11T21:42:06.658Z,57.14
2018-10-11T21:44:34.339Z,57.26
2018-10-11T21:47:01.989Z,56.97
2018-10-11T21:49:29.687Z,56.84
2018-10-11T21:51:57.398Z,57.31
2018-10-11T21:54:25.094Z,57.58
2018-10-11T21:56:52.805Z,57.68
2018-10-11T21:59:20.464Z,57.66
2018-10-11T22:01:48.137Z,57.15
2018-10-11T22:04:15.776Z,57.16
2018-10-11T22:06:43.439Z,57.35
2018-10-11T22:09:11.078Z,57.25
2018-10-11T22:11:38.740Z,57.56
2018-10-11T22:14:06.471Z,57.57
2018-10-11T22:16:34.105Z,58.01
2018-10-11T22:19:01.817Z,57.17
2018-10-11T22:21:29.542Z,57.51
2018-10-11T22:23:57.208Z,57.48
2018-10-11T22:26:25.334Z,57.81
2018-10-11T22:28:53.016Z,57.14
2018-10-11T22:31:20.718Z,57.68
2018-10-11T22:33:48.343Z,57.16
2018-10-11T22:36:16.011Z,57.40
2018-10-11T22:38:43.686Z,57.09
2018-10-11T22:41:12.170Z,56.98
2018-10-11T22:43:40.017Z,57.05
2018-10-11T22:46:07.753Z,57.39
2018-10-11T22:48:35.426Z,57.64
2018-10-11T22:51:03.140Z,57.84
2018-10-11T22:53:30.874Z,57.05
2018-10-11T22:55:58.546Z,57.86
2018-10-11T22:58:26.251Z,57.06
2018-10-11T23:00:54.002Z,57.11
2018-10-11T23:03:21.673Z,57.22
2018-10-11T23:05:49.338Z,56.91
2018-10-11T23:08:17.000Z,57.39
2018-10-11T23:10:44.635Z,57.47
2018-10-11T23:13:12.310Z,58.09
2018-10-11T23:15:40.096Z,57.80
2018-10-11T23:18:07.831Z,57.76
2018-10-11T23:20:35.465Z,57.28
2018-10-11T23:23:03.145Z,57.82
2018-10-11T23:25:30.787Z,57.96
2018-10-11T23:27:58.424Z,57.89
2018-10-11T23:30:26.074Z,58.14
2018-10-11T23:32:53.757Z,57.75
2018-10-11T23:35:21.409Z,57.87
2018-10-11T23:37:49.153Z,57.62
2018-10-11T23:40:16.907Z,58.22
2018-10-11T23:42:44.572Z,57.99
2018-10-11T23:45:13.021Z,58.26
2018-10-11T23:47:41.283Z,57.55
2018-10-11T23:50:08.956Z,58.34
2018-10-11T23:52:36.671Z,57.73
2018-10-11T23:55:04.596Z,58.13
2018-10-11T23:57:32.241Z,58.36
2018-10-11T23:59:59.916Z,57.69
